sensor_id;sensor_type;location;lat;lon;timestamp;pressure;altitude;pressure_sealevel;temperature;humidity
31403;BME280;18039;52.188;21.024;2022-10-17T00:00:42;76799.66;;;-141.45;97.11
31403;BME280;18039;52.188;21.024;2022-10-17T00:03:29;76803.72;;;-141.45;97.70
31403;BME280;18039;52.188;21.024;2022-10-17T00:05:57;76803.72;;;-141.45;97.65
31403;BME280;18039;52.188;21.024;2022-10-17T00:08:24;76803.72;;;-141.45;97.53
31403;BME280;18039;52.188;21.024;2022-10-17T00:10:56;76799.66;;;-141.45;97.54
31403;BME280;18039;52.188;21.024;2022-10-17T00:13:25;76805.75;;;-141.45;97.58
31403;BME280;18039;52.188;21.024;2022-10-17T00:15:53;76807.78;;;-141.45;97.53
31403;BME280;18039;52.188;21.024;2022-10-17T00:18:21;76801.69;;;-141.45;97.54
31403;BME280;18039;52.188;21.024;2022-10-17T00:21:14;76795.59;;;-141.45;97.65
31403;BME280;18039;52.188;21.024;2022-10-17T00:23:41;76803.72;;;-141.45;97.69
31403;BME280;18039;52.188;21.024;2022-10-17T00:26:08;76801.69;;;-141.45;97.71
31403;BME280;18039;52.188;21.024;2022-10-17T00:28:36;76803.72;;;-141.45;97.59
31403;BME280;18039;52.188;21.024;2022-10-17T00:31:05;76811.81;;;-141.45;97.70
31403;BME280;18039;52.188;21.024;2022-10-17T00:33:34;76811.81;;;-141.45;97.71
31403;BME280;18039;52.188;21.024;2022-10-17T00:36:22;76803.72;;;-141.45;97.64
31403;BME280;18039;52.188;21.024;2022-10-17T00:38:52;76811.81;;;-141.45;97.70
31403;BME280;18039;52.188;21.024;2022-10-17T00:41:22;76819.94;;;-141.45;97.70
31403;BME280;18039;52.188;21.024;2022-10-17T00:46:39;76836.16;;;-141.45;97.78
31403;BME280;18039;52.188;21.024;2022-10-17T00:49:09;76842.22;;;-141.45;97.76
31403;BME280;18039;52.188;21.024;2022-10-17T00:51:41;76860.47;;;-141.45;97.60
31403;BME280;18039;52.188;21.024;2022-10-17T00:54:10;76860.47;;;-141.45;97.73
31403;BME280;18039;52.188;21.024;2022-10-17T00:56:39;76868.59;;;-141.45;97.98
31403;BME280;18039;52.188;21.024;2022-10-17T00:59:08;76868.59;;;-141.45;98.24
31403;BME280;18039;52.188;21.024;2022-10-17T01:01:39;76872.66;;;-141.45;98.30
31403;BME280;18039;52.188;21.024;2022-10-17T01:04:07;76868.59;;;-141.45;98.37
31403;BME280;18039;52.188;21.024;2022-10-17T01:06:34;76860.47;;;-141.45;98.41
31403;BME280;18039;52.188;21.024;2022-10-17T01:09:01;76856.44;;;-141.45;98.44
31403;BME280;18039;52.188;21.024;2022-10-17T01:11:49;76868.59;;;-141.45;98.54
31403;BME280;18039;52.188;21.024;2022-10-17T01:14:43;76864.53;;;-141.45;98.79
31403;BME280;18039;52.188;21.024;2022-10-17T01:22:46;76876.69;;;-141.45;98.78
31403;BME280;18039;52.188;21.024;2022-10-17T01:25:34;76872.66;;;-141.45;98.87
31403;BME280;18039;52.188;21.024;2022-10-17T01:28:17;76872.66;;;-141.45;99.07
31403;BME280;18039;52.188;21.024;2022-10-17T01:31:36;76852.38;;;-141.45;98.93
31403;BME280;18039;52.188;21.024;2022-10-17T01:37:24;76832.09;;;-141.45;98.64
31403;BME280;18039;52.188;21.024;2022-10-17T01:40:08;76836.16;;;-141.45;98.53
31403;BME280;18039;52.188;21.024;2022-10-17T01:43:02;76838.19;;;-141.45;98.39
31403;BME280;18039;52.188;21.024;2022-10-17T01:45:37;76840.22;;;-141.45;98.27
31403;BME280;18039;52.188;21.024;2022-10-17T01:48:17;76848.31;;;-141.45;98.19
31403;BME280;18039;52.188;21.024;2022-10-17T01:51:28;76848.31;;;-141.45;98.04
31403;BME280;18039;52.188;21.024;2022-10-17T01:54:15;76852.38;;;-141.45;97.93
31403;BME280;18039;52.188;21.024;2022-10-17T01:56:45;76858.44;;;-141.45;97.59
31403;BME280;18039;52.188;21.024;2022-10-17T01:59:19;76864.53;;;-141.45;97.45
31403;BME280;18039;52.188;21.024;2022-10-17T02:01:49;76868.59;;;-141.45;97.43
31403;BME280;18039;52.188;21.024;2022-10-17T02:04:17;76870.63;;;-141.45;97.35
31403;BME280;18039;52.188;21.024;2022-10-17T02:06:44;76872.66;;;-141.45;97.24
31403;BME280;18039;52.188;21.024;2022-10-17T02:09:22;76884.81;;;-141.45;97.16
31403;BME280;18039;52.188;21.024;2022-10-17T02:12:20;76886.84;;;-141.45;97.31
31403;BME280;18039;52.188;21.024;2022-10-17T02:15:19;76896.97;;;-141.45;97.49
31403;BME280;18039;52.188;21.024;2022-10-17T02:17:59;76896.97;;;-141.45;97.55
31403;BME280;18039;52.188;21.024;2022-10-17T02:20:37;76909.13;;;-141.45;97.49
31403;BME280;18039;52.188;21.024;2022-10-17T02:23:10;76915.22;;;-141.45;97.65
31403;BME280;18039;52.188;21.024;2022-10-17T02:25:54;76917.25;;;-141.45;97.65
31403;BME280;18039;52.188;21.024;2022-10-17T02:31:22;76929.41;;;-141.45;97.69
31403;BME280;18039;52.188;21.024;2022-10-17T02:33:58;76941.56;;;-141.45;97.73
31403;BME280;18039;52.188;21.024;2022-10-17T02:36:39;76947.66;;;-141.45;97.69
31403;BME280;18039;52.188;21.024;2022-10-17T02:39:08;76949.69;;;-141.45;97.70
31403;BME280;18039;52.188;21.024;2022-10-17T02:41:37;76965.91;;;-141.45;97.94
31403;BME280;18039;52.188;21.024;2022-10-17T02:44:06;76969.94;;;-141.45;97.97
31403;BME280;18039;52.188;21.024;2022-10-17T02:46:35;76969.94;;;-141.45;97.84
31403;BME280;18039;52.188;21.024;2022-10-17T02:49:20;76969.94;;;-141.45;97.77
31403;BME280;18039;52.188;21.024;2022-10-17T02:54:39;76982.13;;;-141.45;98.06
31403;BME280;18039;52.188;21.024;2022-10-17T02:57:33;76994.28;;;-141.45;97.95
31403;BME280;18039;52.188;21.024;2022-10-17T03:00:05;76986.16;;;-141.45;97.97
31403;BME280;18039;52.188;21.024;2022-10-17T03:02:41;76994.28;;;-141.45;98.03
31403;BME280;18039;52.188;21.024;2022-10-17T03:05:12;76998.34;;;-141.45;98.10
31403;BME280;18039;52.188;21.024;2022-10-17T03:07:39;77002.41;;;-141.45;98.41
31403;BME280;18039;52.188;21.024;2022-10-17T03:10:07;77006.44;;;-141.45;98.22
31403;BME280;18039;52.188;21.024;2022-10-17T03:12:34;77020.63;;;-141.45;98.25
31403;BME280;18039;52.188;21.024;2022-10-17T03:15:01;77026.72;;;-141.45;98.42
31403;BME280;18039;52.188;21.024;2022-10-17T03:17:31;77026.72;;;-141.45;98.67
31403;BME280;18039;52.188;21.024;2022-10-17T03:19:58;77022.66;;;-141.45;98.52
31403;BME280;18039;52.188;21.024;2022-10-17T03:22:25;77022.66;;;-141.45;98.58
31403;BME280;18039;52.188;21.024;2022-10-17T03:24:53;77016.59;;;-141.45;98.43
31403;BME280;18039;52.188;21.024;2022-10-17T03:27:20;77014.56;;;-141.45;98.35
31403;BME280;18039;52.188;21.024;2022-10-17T03:29:48;77010.50;;;-141.45;98.31
31403;BME280;18039;52.188;21.024;2022-10-17T03:32:15;77010.50;;;-141.45;98.38
31403;BME280;18039;52.188;21.024;2022-10-17T03:34:42;77016.59;;;-141.45;98.42
31403;BME280;18039;52.188;21.024;2022-10-17T03:37:09;77010.50;;;-141.45;98.50
31403;BME280;18039;52.188;21.024;2022-10-17T03:39:38;77010.50;;;-141.45;98.61
31403;BME280;18039;52.188;21.024;2022-10-17T03:42:05;77010.50;;;-141.45;98.54
31403;BME280;18039;52.188;21.024;2022-10-17T03:44:32;77010.50;;;-141.45;98.50
31403;BME280;18039;52.188;21.024;2022-10-17T03:47:00;77020.63;;;-141.45;98.22
31403;BME280;18039;52.188;21.024;2022-10-17T03:49:27;77016.59;;;-141.45;98.63
31403;BME280;18039;52.188;21.024;2022-10-17T03:51:54;77010.50;;;-141.45;98.79
31403;BME280;18039;52.188;21.024;2022-10-17T03:54:21;77000.38;;;-141.45;98.77
31403;BME280;18039;52.188;21.024;2022-10-17T03:56:49;77000.38;;;-141.45;98.90
31403;BME280;18039;52.188;21.024;2022-10-17T03:59:18;76994.28;;;-141.45;98.82
31403;BME280;18039;52.188;21.024;2022-10-17T04:01:53;77002.41;;;-141.45;98.84
31403;BME280;18039;52.188;21.024;2022-10-17T04:04:21;77000.38;;;-141.45;98.85
31403;BME280;18039;52.188;21.024;2022-10-17T04:06:49;76998.34;;;-141.45;98.86
31403;BME280;18039;52.188;21.024;2022-10-17T04:09:17;77002.41;;;-141.45;98.69
31403;BME280;18039;52.188;21.024;2022-10-17T04:12:05;77008.47;;;-141.45;98.41
31403;BME280;18039;52.188;21.024;2022-10-17T04:14:35;77006.44;;;-141.45;98.41
31403;BME280;18039;52.188;21.024;2022-10-17T04:17:03;77014.56;;;-141.45;98.47
31403;BME280;18039;52.188;21.024;2022-10-17T04:19:31;77018.63;;;-141.45;98.55
31403;BME280;18039;52.188;21.024;2022-10-17T04:21:58;77026.72;;;-141.45;98.43
31403;BME280;18039;52.188;21.024;2022-10-17T04:24:27;77038.88;;;-141.45;98.38
31403;BME280;18039;52.188;21.024;2022-10-17T04:27:19;77042.94;;;-141.45;98.56
31403;BME280;18039;52.188;21.024;2022-10-17T04:29:46;77051.06;;;-141.45;98.59
31403;BME280;18039;52.188;21.024;2022-10-17T04:32:21;77051.06;;;-141.45;98.41
31403;BME280;18039;52.188;21.024;2022-10-17T04:35:08;77055.09;;;-141.45;98.48
31403;BME280;18039;52.188;21.024;2022-10-17T04:37:38;77059.16;;;-141.45;98.63
31403;BME280;18039;52.188;21.024;2022-10-17T04:40:11;77055.09;;;-141.45;98.44
31403;BME280;18039;52.188;21.024;2022-10-17T04:42:38;77055.09;;;-141.45;98.56
31403;BME280;18039;52.188;21.024;2022-10-17T04:45:07;77059.16;;;-141.45;98.75
31403;BME280;18039;52.188;21.024;2022-10-17T04:47:35;77055.09;;;-141.45;98.74
31403;BME280;18039;52.188;21.024;2022-10-17T04:50:03;77051.06;;;-141.45;98.66
31403;BME280;18039;52.188;21.024;2022-10-17T04:52:34;77047.00;;;-141.45;99.01
31403;BME280;18039;52.188;21.024;2022-10-17T04:55:06;77049.03;;;-141.45;99.33
31403;BME280;18039;52.188;21.024;2022-10-17T04:57:35;77051.06;;;-141.45;99.41
31403;BME280;18039;52.188;21.024;2022-10-17T05:00:11;77047.00;;;-141.45;99.52
31403;BME280;18039;52.188;21.024;2022-10-17T05:03:00;77042.94;;;-141.45;99.59
31403;BME280;18039;52.188;21.024;2022-10-17T05:05:28;77030.78;;;-141.45;99.37
31403;BME280;18039;52.188;21.024;2022-10-17T05:07:56;77034.84;;;-141.45;99.28
31403;BME280;18039;52.188;21.024;2022-10-17T05:10:27;77034.84;;;-141.45;99.28
31403;BME280;18039;52.188;21.024;2022-10-17T05:12:55;77036.84;;;-141.45;99.51
31403;BME280;18039;52.188;21.024;2022-10-17T05:15:25;77036.84;;;-141.45;99.58
31403;BME280;18039;52.188;21.024;2022-10-17T05:17:55;77042.94;;;-141.45;99.66
31403;BME280;18039;52.188;21.024;2022-10-17T05:20:24;77042.94;;;-141.45;99.91
31403;BME280;18039;52.188;21.024;2022-10-17T05:22:51;77040.91;;;-141.45;99.99
31403;BME280;18039;52.188;21.024;2022-10-17T05:25:19;77038.88;;;-141.45;100.00
31403;BME280;18039;52.188;21.024;2022-10-17T05:27:46;77034.84;;;-141.45;100.00
31403;BME280;18039;52.188;21.024;2022-10-17T05:30:14;77026.72;;;-141.45;100.00
31403;BME280;18039;52.188;21.024;2022-10-17T05:32:41;77014.56;;;-141.45;99.97
31403;BME280;18039;52.188;21.024;2022-10-17T05:35:08;77012.53;;;-141.45;99.85
31403;BME280;18039;52.188;21.024;2022-10-17T05:37:37;77020.63;;;-141.45;99.37
31403;BME280;18039;52.188;21.024;2022-10-17T05:40:05;77030.78;;;-141.45;98.74
31403;BME280;18039;52.188;21.024;2022-10-17T05:42:32;77038.88;;;-141.45;98.79
31403;BME280;18039;52.188;21.024;2022-10-17T05:45:00;77051.06;;;-141.45;98.54
31403;BME280;18039;52.188;21.024;2022-10-17T05:47:28;77044.97;;;-141.45;98.47
31403;BME280;18039;52.188;21.024;2022-10-17T05:49:56;77047.00;;;-141.45;98.36
31403;BME280;18039;52.188;21.024;2022-10-17T05:52:30;77038.88;;;-141.45;98.32
31403;BME280;18039;52.188;21.024;2022-10-17T05:55:10;77036.84;;;-141.45;98.32
31403;BME280;18039;52.188;21.024;2022-10-17T05:57:38;77030.78;;;-141.45;98.30
31403;BME280;18039;52.188;21.024;2022-10-17T06:00:10;77018.63;;;-141.45;98.33
31403;BME280;18039;52.188;21.024;2022-10-17T06:02:42;77014.56;;;-141.45;98.14
31403;BME280;18039;52.188;21.024;2022-10-17T06:05:14;77014.56;;;-141.45;98.14
31403;BME280;18039;52.188;21.024;2022-10-17T06:07:41;77006.44;;;-141.45;97.87
31403;BME280;18039;52.188;21.024;2022-10-17T06:10:09;77002.41;;;-141.45;97.46
31403;BME280;18039;52.188;21.024;2022-10-17T06:12:39;77002.41;;;-141.45;97.30
31403;BME280;18039;52.188;21.024;2022-10-17T06:15:06;77002.41;;;-141.45;97.11
31403;BME280;18039;52.188;21.024;2022-10-17T06:17:34;77010.50;;;-141.45;96.72
31403;BME280;18039;52.188;21.024;2022-10-17T06:20:01;77014.56;;;-141.45;96.58
31403;BME280;18039;52.188;21.024;2022-10-17T06:22:29;77024.69;;;-141.45;96.38
31403;BME280;18039;52.188;21.024;2022-10-17T06:24:57;77026.72;;;-141.45;96.27
31403;BME280;18039;52.188;21.024;2022-10-17T06:27:25;77018.63;;;-141.45;95.77
31403;BME280;18039;52.188;21.024;2022-10-17T06:29:52;77010.50;;;-141.45;95.88
31403;BME280;18039;52.188;21.024;2022-10-17T06:32:20;77006.44;;;-141.45;95.72
31403;BME280;18039;52.188;21.024;2022-10-17T06:34:47;77002.41;;;-141.45;95.59
31403;BME280;18039;52.188;21.024;2022-10-17T06:37:14;77006.44;;;-141.45;95.47
31403;BME280;18039;52.188;21.024;2022-10-17T06:39:42;77002.41;;;-141.45;95.72
31403;BME280;18039;52.188;21.024;2022-10-17T06:42:16;76994.28;;;-141.45;95.83
31403;BME280;18039;52.188;21.024;2022-10-17T06:44:54;76986.16;;;-141.45;95.80
31403;BME280;18039;52.188;21.024;2022-10-17T06:47:36;76971.97;;;-141.45;95.58
31403;BME280;18039;52.188;21.024;2022-10-17T06:50:35;76961.84;;;-141.45;95.28
31403;BME280;18039;52.188;21.024;2022-10-17T06:53:11;76949.69;;;-141.45;94.96
31403;BME280;18039;52.188;21.024;2022-10-17T06:55:51;76949.69;;;-141.45;94.60
31403;BME280;18039;52.188;21.024;2022-10-17T06:58:34;76939.53;;;-141.45;94.69
31403;BME280;18039;52.188;21.024;2022-10-17T07:01:20;76929.41;;;-141.45;94.54
31403;BME280;18039;52.188;21.024;2022-10-17T07:03:51;76927.38;;;-141.45;94.05
31403;BME280;18039;52.188;21.024;2022-10-17T07:06:18;76917.25;;;-141.45;94.05
31403;BME280;18039;52.188;21.024;2022-10-17T07:08:46;76909.13;;;-141.45;93.69
31403;BME280;18039;52.188;21.024;2022-10-17T07:11:20;76905.09;;;-141.45;93.24
31403;BME280;18039;52.188;21.024;2022-10-17T07:13:50;76892.91;;;-141.45;92.92
31403;BME280;18039;52.188;21.024;2022-10-17T07:16:17;76888.88;;;-141.45;92.72
31403;BME280;18039;52.188;21.024;2022-10-17T07:18:50;76892.91;;;-141.45;92.53
31403;BME280;18039;52.188;21.024;2022-10-17T07:21:19;76880.75;;;-141.45;92.22
31403;BME280;18039;52.188;21.024;2022-10-17T07:23:46;76868.59;;;-141.45;91.68
31403;BME280;18039;52.188;21.024;2022-10-17T07:26:14;76858.44;;;-141.45;91.32
31403;BME280;18039;52.188;21.024;2022-10-17T07:28:43;76852.38;;;-141.45;90.68
31403;BME280;18039;52.188;21.024;2022-10-17T07:31:31;76840.22;;;-141.45;90.40
31403;BME280;18039;52.188;21.024;2022-10-17T07:33:59;76832.09;;;-141.45;89.96
31403;BME280;18039;52.188;21.024;2022-10-17T07:36:26;76824.00;;;-141.45;89.30
31403;BME280;18039;52.188;21.024;2022-10-17T07:38:55;76828.03;;;-141.45;88.94
31403;BME280;18039;52.188;21.024;2022-10-17T07:41:23;76819.94;;;-141.45;88.84
31403;BME280;18039;52.188;21.024;2022-10-17T07:43:50;76819.94;;;-141.45;88.68
31403;BME280;18039;52.188;21.024;2022-10-17T07:46:21;76815.88;;;-141.45;88.45
31403;BME280;18039;52.188;21.024;2022-10-17T07:48:48;76813.84;;;-141.45;87.97
31403;BME280;18039;52.188;21.024;2022-10-17T07:51:18;76805.75;;;-141.45;87.97
31403;BME280;18039;52.188;21.024;2022-10-17T07:53:46;76795.59;;;-141.45;87.45
31403;BME280;18039;52.188;21.024;2022-10-17T07:56:14;76791.56;;;-141.45;87.28
31403;BME280;18039;52.188;21.024;2022-10-17T07:58:42;76787.50;;;-141.45;87.21
31403;BME280;18039;52.188;21.024;2022-10-17T08:01:10;76791.56;;;-141.45;87.01
31403;BME280;18039;52.188;21.024;2022-10-17T08:03:43;76775.34;;;-141.45;86.79
31403;BME280;18039;52.188;21.024;2022-10-17T08:06:11;76767.22;;;-141.45;86.56
31403;BME280;18039;52.188;21.024;2022-10-17T08:08:39;76765.19;;;-141.45;85.21
31403;BME280;18039;52.188;21.024;2022-10-17T08:11:09;76759.13;;;-141.45;85.50
31403;BME280;18039;52.188;21.024;2022-10-17T08:13:37;76744.94;;;-141.45;85.21
31403;BME280;18039;52.188;21.024;2022-10-17T08:16:07;76730.75;;;-141.45;84.61
31403;BME280;18039;52.188;21.024;2022-10-17T08:18:35;76722.63;;;-141.45;83.90
31403;BME280;18039;52.188;21.024;2022-10-17T08:21:04;76718.56;;;-141.45;82.97
31403;BME280;18039;52.188;21.024;2022-10-17T08:23:36;76718.56;;;-141.45;83.57
31403;BME280;18039;52.188;21.024;2022-10-17T08:26:05;76702.34;;;-141.45;83.66
31403;BME280;18039;52.188;21.024;2022-10-17T08:28:35;76690.19;;;-141.45;83.45
31403;BME280;18039;52.188;21.024;2022-10-17T08:31:08;76678.03;;;-141.45;83.30
31403;BME280;18039;52.188;21.024;2022-10-17T08:33:37;76669.94;;;-141.45;82.94
31403;BME280;18039;52.188;21.024;2022-10-17T08:36:05;76657.75;;;-141.45;82.53
31403;BME280;18039;52.188;21.024;2022-10-17T08:38:33;76645.59;;;-141.45;82.22
31403;BME280;18039;52.188;21.024;2022-10-17T08:41:06;76633.44;;;-141.45;81.86
31403;BME280;18039;52.188;21.024;2022-10-17T08:46:28;76629.38;;;-141.45;81.23
31403;BME280;18039;52.188;21.024;2022-10-17T08:48:58;76625.31;;;-141.45;81.14
31403;BME280;18039;52.188;21.024;2022-10-17T08:51:30;76621.28;;;-141.45;81.01
31403;BME280;18039;52.188;21.024;2022-10-17T08:54:13;76617.22;;;-141.45;80.93
31403;BME280;18039;52.188;21.024;2022-10-17T08:56:44;76617.22;;;-141.45;80.85
31403;BME280;18039;52.188;21.024;2022-10-17T08:59:23;76605.06;;;-141.45;80.69
31403;BME280;18039;52.188;21.024;2022-10-17T09:02:02;76598.97;;;-141.45;80.33
31403;BME280;18039;52.188;21.024;2022-10-17T09:20:37;76548.31;;;-141.45;78.75
31403;BME280;18039;52.188;21.024;2022-10-17T09:25:52;76519.91;;;-141.45;77.93
31403;BME280;18039;52.188;21.024;2022-10-17T09:33:41;76487.50;;;-141.45;75.94
31403;BME280;18039;52.188;21.024;2022-10-17T09:36:28;76465.19;;;-141.45;75.62
31403;BME280;18039;52.188;21.024;2022-10-17T09:38:59;76451.00;;;-141.45;75.50
31403;BME280;18039;52.188;21.024;2022-10-17T09:41:33;76446.94;;;-141.45;74.96
31403;BME280;18039;52.188;21.024;2022-10-17T09:49:36;76428.69;;;-141.45;73.28
31403;BME280;18039;52.188;21.024;2022-10-17T09:52:09;76426.69;;;-141.45;73.25
31403;BME280;18039;52.188;21.024;2022-10-17T09:54:43;76414.50;;;-141.45;72.72
31403;BME280;18039;52.188;21.024;2022-10-17T09:57:13;76398.28;;;-141.45;72.69
31403;BME280;18039;52.188;21.024;2022-10-17T09:59:44;76398.28;;;-141.45;72.74
31403;BME280;18039;52.188;21.024;2022-10-17T10:04:58;76382.09;;;-141.45;71.82
31403;BME280;18039;52.188;21.024;2022-10-17T10:07:35;76369.91;;;-141.45;71.91
31403;BME280;18039;52.188;21.024;2022-10-17T10:10:21;76363.84;;;-141.45;71.72
31403;BME280;18039;52.188;21.024;2022-10-17T10:15:45;76341.53;;;-141.45;71.04
31403;BME280;18039;52.188;21.024;2022-10-17T10:26:42;76266.53;;;-141.45;67.93
31403;BME280;18039;52.188;21.024;2022-10-17T10:32:31;76248.31;;;-141.45;67.33
31403;BME280;18039;52.188;21.024;2022-10-17T10:35:14;76240.19;;;-141.45;66.49
31403;BME280;18039;52.188;21.024;2022-10-17T10:37:44;76236.16;;;-141.45;66.52
31403;BME280;18039;52.188;21.024;2022-10-17T10:40:21;76221.94;;;-141.45;66.55
31403;BME280;18039;52.188;21.024;2022-10-17T10:42:52;76215.88;;;-141.45;66.46
31403;BME280;18039;52.188;21.024;2022-10-17T10:48:19;76191.56;;;-141.45;65.73
31403;BME280;18039;52.188;21.024;2022-10-17T10:51:12;76187.50;;;-141.45;64.66
31403;BME280;18039;52.188;21.024;2022-10-17T10:53:48;76189.53;;;-141.45;64.95
31403;BME280;18039;52.188;21.024;2022-10-17T10:56:22;76187.50;;;-141.45;65.11
31403;BME280;18039;52.188;21.024;2022-10-17T10:59:05;76181.41;;;-141.45;64.93
31403;BME280;18039;52.188;21.024;2022-10-17T11:04:56;76159.13;;;-141.45;63.98
31403;BME280;18039;52.188;21.024;2022-10-17T11:07:40;76146.97;;;-141.45;63.48
31403;BME280;18039;52.188;21.024;2022-10-17T11:13:12;76142.91;;;-141.45;63.22
31403;BME280;18039;52.188;21.024;2022-10-17T11:18:56;76130.75;;;-141.45;62.88
31403;BME280;18039;52.188;21.024;2022-10-17T11:21:47;76130.75;;;-141.45;63.05
31403;BME280;18039;52.188;21.024;2022-10-17T11:26:51;76118.59;;;-141.45;62.74
31403;BME280;18039;52.188;21.024;2022-10-17T11:29:21;76122.63;;;-141.45;62.46
31403;BME280;18039;52.188;21.024;2022-10-17T11:31:51;76118.59;;;-141.45;62.39
31403;BME280;18039;52.188;21.024;2022-10-17T11:34:30;76114.53;;;-141.45;62.56
31403;BME280;18039;52.188;21.024;2022-10-17T11:37:03;76118.59;;;-141.45;62.77
31403;BME280;18039;52.188;21.024;2022-10-17T11:39:50;76120.63;;;-141.45;62.69
31403;BME280;18039;52.188;21.024;2022-10-17T11:42:24;76122.63;;;-141.45;62.79
31403;BME280;18039;52.188;21.024;2022-10-17T11:45:08;76122.63;;;-141.45;62.13
31403;BME280;18039;52.188;21.024;2022-10-17T11:47:43;76122.63;;;-141.45;61.67
31403;BME280;18039;52.188;21.024;2022-10-17T11:50:29;76116.56;;;-141.45;61.75
31403;BME280;18039;52.188;21.024;2022-10-17T11:53:27;76122.63;;;-141.45;62.12
31403;BME280;18039;52.188;21.024;2022-10-17T11:55:57;76118.59;;;-141.45;62.14
31403;BME280;18039;52.188;21.024;2022-10-17T11:58:46;76118.59;;;-141.45;62.21
31403;BME280;18039;52.188;21.024;2022-10-17T12:01:52;76116.56;;;-141.45;61.16
31403;BME280;18039;52.188;21.024;2022-10-17T12:12:33;76094.25;;;-141.45;61.37
31403;BME280;18039;52.188;21.024;2022-10-17T12:17:40;76053.72;;;-141.45;60.73
31403;BME280;18039;52.188;21.024;2022-10-17T12:25:29;76009.13;;;-141.45;59.74
31403;BME280;18039;52.188;21.024;2022-10-17T12:33:47;75972.66;;;-141.45;58.81
31403;BME280;18039;52.188;21.024;2022-10-17T12:38:51;75976.72;;;-141.45;58.90
31403;BME280;18039;52.188;21.024;2022-10-17T12:49:39;75992.94;;;-141.45;58.65
31403;BME280;18039;52.188;21.024;2022-10-17T12:52:19;75990.91;;;-141.45;58.73
31403;BME280;18039;52.188;21.024;2022-10-17T12:58:04;76005.09;;;-141.45;59.31
31403;BME280;18039;52.188;21.024;2022-10-17T13:00:54;76005.09;;;-141.45;59.51
31403;BME280;18039;52.188;21.024;2022-10-17T13:03:43;76021.31;;;-141.45;59.33
31403;BME280;18039;52.188;21.024;2022-10-17T13:06:27;76025.34;;;-141.45;59.14
31403;BME280;18039;52.188;21.024;2022-10-17T13:08:58;76033.47;;;-141.45;59.21
31403;BME280;18039;52.188;21.024;2022-10-17T13:11:32;76033.47;;;-141.45;59.64
31403;BME280;18039;52.188;21.024;2022-10-17T13:14:02;76041.56;;;-141.45;59.93
31403;BME280;18039;52.188;21.024;2022-10-17T13:16:37;76043.59;;;-141.45;59.52
31403;BME280;18039;52.188;21.024;2022-10-17T13:19:14;76049.69;;;-141.45;59.96
31403;BME280;18039;52.188;21.024;2022-10-17T13:21:58;76053.72;;;-141.45;59.97
31403;BME280;18039;52.188;21.024;2022-10-17T13:24:37;76053.72;;;-141.45;60.14
31403;BME280;18039;52.188;21.024;2022-10-17T13:27:20;76051.69;;;-141.45;60.56
31403;BME280;18039;52.188;21.024;2022-10-17T13:29:47;76057.78;;;-141.45;60.62
31403;BME280;18039;52.188;21.024;2022-10-17T13:32:15;76057.78;;;-141.45;60.74
31403;BME280;18039;52.188;21.024;2022-10-17T13:34:42;76053.72;;;-141.45;60.82
31403;BME280;18039;52.188;21.024;2022-10-17T13:37:13;76049.69;;;-141.45;60.79
31403;BME280;18039;52.188;21.024;2022-10-17T13:39:44;76049.69;;;-141.45;60.97
31403;BME280;18039;52.188;21.024;2022-10-17T13:42:38;76049.69;;;-141.45;60.33
31403;BME280;18039;52.188;21.024;2022-10-17T13:45:19;76045.63;;;-141.45;60.46
31403;BME280;18039;52.188;21.024;2022-10-17T13:47:48;76041.56;;;-141.45;60.77
31403;BME280;18039;52.188;21.024;2022-10-17T13:50:22;76041.56;;;-141.45;61.10
31403;BME280;18039;52.188;21.024;2022-10-17T13:53:25;76049.69;;;-141.45;61.42
31403;BME280;18039;52.188;21.024;2022-10-17T13:56:25;76051.69;;;-141.45;61.53
31403;BME280;18039;52.188;21.024;2022-10-17T13:59:18;76061.84;;;-141.45;61.41
31403;BME280;18039;52.188;21.024;2022-10-17T14:01:47;76053.72;;;-141.45;61.68
31403;BME280;18039;52.188;21.024;2022-10-17T14:04:15;76059.81;;;-141.45;61.73
31403;BME280;18039;52.188;21.024;2022-10-17T14:06:47;76057.78;;;-141.45;62.00
31403;BME280;18039;52.188;21.024;2022-10-17T14:12:00;76057.78;;;-141.45;62.24
31403;BME280;18039;52.188;21.024;2022-10-17T14:14:28;76057.78;;;-141.45;62.13
31403;BME280;18039;52.188;21.024;2022-10-17T14:17:12;76059.81;;;-141.45;62.30
31403;BME280;18039;52.188;21.024;2022-10-17T14:19:40;76069.94;;;-141.45;62.40
31403;BME280;18039;52.188;21.024;2022-10-17T14:22:17;76067.91;;;-141.45;62.55
31403;BME280;18039;52.188;21.024;2022-10-17T14:24:50;76069.94;;;-141.45;62.81
31403;BME280;18039;52.188;21.024;2022-10-17T14:27:37;76069.94;;;-141.45;63.10
31403;BME280;18039;52.188;21.024;2022-10-17T14:33:25;76078.06;;;-141.45;63.22
31403;BME280;18039;52.188;21.024;2022-10-17T14:35:59;76082.09;;;-141.45;63.67
31403;BME280;18039;52.188;21.024;2022-10-17T14:38:28;76090.22;;;-141.45;63.72
31403;BME280;18039;52.188;21.024;2022-10-17T14:41:04;76094.25;;;-141.45;63.96
31403;BME280;18039;52.188;21.024;2022-10-17T14:43:58;76092.25;;;-141.45;64.09
31403;BME280;18039;52.188;21.024;2022-10-17T14:46:26;76090.22;;;-141.45;64.09
31403;BME280;18039;52.188;21.024;2022-10-17T14:48:57;76094.25;;;-141.45;64.35
31403;BME280;18039;52.188;21.024;2022-10-17T14:51:28;76098.31;;;-141.45;64.36
31403;BME280;18039;52.188;21.024;2022-10-17T14:54:29;76122.63;;;-141.45;64.58
31403;BME280;18039;52.188;21.024;2022-10-17T14:56:56;76114.53;;;-141.45;64.85
31403;BME280;18039;52.188;21.024;2022-10-17T14:59:23;76124.66;;;-141.45;64.80
31403;BME280;18039;52.188;21.024;2022-10-17T15:02:12;76130.75;;;-141.45;65.00
31403;BME280;18039;52.188;21.024;2022-10-17T15:04:39;76138.84;;;-141.45;65.25
31403;BME280;18039;52.188;21.024;2022-10-17T15:07:12;76149.00;;;-141.45;65.47